sensor_id;sensor_type;location;lat;lon;timestamp;pressure;altitude;pressure_sealevel;temperature;humidity
59873;BME280;50750;51.636;4.948;2023-03-13T00:02:22;100355.42;;;10.58;63.51
59873;BME280;50750;51.636;4.948;2023-03-13T00:04:48;100352.59;;;10.59;63.61
59873;BME280;50750;51.636;4.948;2023-03-13T00:07:15;100341.90;;;10.59;63.57
59873;BME280;50750;51.636;4.948;2023-03-13T00:09:42;100336.11;;;10.59;63.77
59873;BME280;50750;51.636;4.948;2023-03-13T00:12:08;100335.92;;;10.59;63.83
59873;BME280;50750;51.636;4.948;2023-03-13T00:14:35;100331.02;;;10.60;63.51
59873;BME280;50750;51.636;4.948;2023-03-13T00:17:01;100324.20;;;10.59;63.60
59873;BME280;50750;51.636;4.948;2023-03-13T00:19:28;100316.50;;;10.59;63.74
59873;BME280;50750;51.636;4.948;2023-03-13T00:21:54;100312.65;;;10.59;63.76
59873;BME280;50750;51.636;4.948;2023-03-13T00:24:21;100300.23;;;10.58;63.70
59873;BME280;50750;51.636;4.948;2023-03-13T00:26:48;100295.69;;;10.59;63.75
59873;BME280;50750;51.636;4.948;2023-03-13T00:29:14;100284.66;;;10.58;63.61
59873;BME280;50750;51.636;4.948;2023-03-13T00:31:41;100279.25;;;10.58;63.78
59873;BME280;50750;51.636;4.948;2023-03-13T00:34:08;100271.56;;;10.58;63.96
59873;BME280;50750;51.636;4.948;2023-03-13T00:36:35;100266.45;;;10.58;63.71
59873;BME280;50750;51.636;4.948;2023-03-13T00:39:04;100258.90;;;10.59;63.87
59873;BME280;50750;51.636;4.948;2023-03-13T00:41:32;100256.02;;;10.61;63.98
59873;BME280;50750;51.636;4.948;2023-03-13T00:43:59;100250.41;;;10.61;63.87
59873;BME280;50750;51.636;4.948;2023-03-13T00:46:27;100246.36;;;10.62;63.91
59873;BME280;50750;51.636;4.948;2023-03-13T00:48:55;100240.56;;;10.63;63.88
59873;BME280;50750;51.636;4.948;2023-03-13T00:51:23;100238.94;;;10.64;64.12
59873;BME280;50750;51.636;4.948;2023-03-13T00:53:52;100231.23;;;10.64;64.18
59873;BME280;50750;51.636;4.948;2023-03-13T00:56:19;100221.42;;;10.64;64.16
59873;BME280;50750;51.636;4.948;2023-03-13T00:58:48;100218.06;;;10.65;64.23
59873;BME280;50750;51.636;4.948;2023-03-13T01:03:46;100208.96;;;10.65;64.32
59873;BME280;50750;51.636;4.948;2023-03-13T01:06:15;100199.01;;;10.64;63.94
59873;BME280;50750;51.636;4.948;2023-03-13T01:08:42;100190.61;;;10.64;64.16
59873;BME280;50750;51.636;4.948;2023-03-13T01:11:15;100197.27;;;10.64;64.40
59873;BME280;50750;51.636;4.948;2023-03-13T01:13:43;100189.91;;;10.64;64.41
59873;BME280;50750;51.636;4.948;2023-03-13T01:16:12;100187.91;;;10.65;64.65
59873;BME280;50750;51.636;4.948;2023-03-13T01:18:40;100185.59;;;10.66;64.24
59873;BME280;50750;51.636;4.948;2023-03-13T01:21:07;100179.95;;;10.68;64.31
59873;BME280;50750;51.636;4.948;2023-03-13T01:23:34;100169.94;;;10.68;64.37
59873;BME280;50750;51.636;4.948;2023-03-13T01:26:03;100166.92;;;10.69;64.30
59873;BME280;50750;51.636;4.948;2023-03-13T01:28:31;100153.09;;;10.69;64.44
59873;BME280;50750;51.636;4.948;2023-03-13T01:30:59;100153.77;;;10.70;64.61
59873;BME280;50750;51.636;4.948;2023-03-13T01:33:26;100150.27;;;10.70;64.62
59873;BME280;50750;51.636;4.948;2023-03-13T01:36:00;100139.39;;;10.70;64.76
59873;BME280;50750;51.636;4.948;2023-03-13T01:38:27;100140.45;;;10.70;64.75
59873;BME280;50750;51.636;4.948;2023-03-13T01:40:53;100129.60;;;10.70;64.70
59873;BME280;50750;51.636;4.948;2023-03-13T01:43:22;100123.13;;;10.70;64.51
59873;BME280;50750;51.636;4.948;2023-03-13T01:51:19;100104.77;;;10.69;64.85
59873;BME280;50750;51.636;4.948;2023-03-13T01:53:53;100093.23;;;10.69;64.69
59873;BME280;50750;51.636;4.948;2023-03-13T01:56:28;100083.89;;;10.70;64.86
59873;BME280;50750;51.636;4.948;2023-03-13T01:58:58;100075.80;;;10.71;64.49
59873;BME280;50750;51.636;4.948;2023-03-13T02:01:25;100069.63;;;10.72;64.79
59873;BME280;50750;51.636;4.948;2023-03-13T02:03:55;100064.70;;;10.73;64.36
59873;BME280;50750;51.636;4.948;2023-03-13T02:06:23;100057.52;;;10.73;64.52
59873;BME280;50750;51.636;4.948;2023-03-13T02:08:54;100047.30;;;10.74;64.46
59873;BME280;50750;51.636;4.948;2023-03-13T02:11:46;100040.30;;;10.74;64.33
59873;BME280;50750;51.636;4.948;2023-03-13T02:14:10;100031.71;;;10.74;64.40
59873;BME280;50750;51.636;4.948;2023-03-13T02:16:38;100025.79;;;10.73;64.43
59873;BME280;50750;51.636;4.948;2023-03-13T02:19:20;100023.99;;;10.74;64.58
59873;BME280;50750;51.636;4.948;2023-03-13T02:22:01;100016.13;;;10.74;64.54
59873;BME280;50750;51.636;4.948;2023-03-13T02:24:37;100018.23;;;10.74;64.73
59873;BME280;50750;51.636;4.948;2023-03-13T02:27:08;100020.17;;;10.73;64.89
59873;BME280;50750;51.636;4.948;2023-03-13T02:29:35;100014.72;;;10.74;65.13
59873;BME280;50750;51.636;4.948;2023-03-13T02:32:02;100019.44;;;10.75;64.79
59873;BME280;50750;51.636;4.948;2023-03-13T02:34:32;100025.14;;;10.76;64.90
59873;BME280;50750;51.636;4.948;2023-03-13T02:37:02;100017.73;;;10.77;64.80
59873;BME280;50750;51.636;4.948;2023-03-13T02:39:31;100017.70;;;10.78;64.84
59873;BME280;50750;51.636;4.948;2023-03-13T02:42:00;100006.77;;;10.79;64.61
59873;BME280;50750;51.636;4.948;2023-03-13T02:44:28;99998.52;;;10.80;64.44
59873;BME280;50750;51.636;4.948;2023-03-13T02:46:55;100002.02;;;10.80;64.83
59873;BME280;50750;51.636;4.948;2023-03-13T02:51:48;100001.23;;;10.82;64.36
59873;BME280;50750;51.636;4.948;2023-03-13T02:54:18;100000.70;;;10.82;64.53
59873;BME280;50750;51.636;4.948;2023-03-13T02:56:48;99992.49;;;10.81;64.47
59873;BME280;50750;51.636;4.948;2023-03-13T02:59:16;99998.14;;;10.81;64.60
59873;BME280;50750;51.636;4.948;2023-03-13T03:01:43;100001.81;;;10.81;64.34
59873;BME280;50750;51.636;4.948;2023-03-13T03:04:10;100007.45;;;10.80;64.50
59873;BME280;50750;51.636;4.948;2023-03-13T03:06:36;100009.38;;;10.80;64.31
59873;BME280;50750;51.636;4.948;2023-03-13T03:09:03;100004.48;;;10.80;64.40
59873;BME280;50750;51.636;4.948;2023-03-13T03:11:30;99999.59;;;10.79;64.33
59873;BME280;50750;51.636;4.948;2023-03-13T03:13:57;99997.61;;;10.81;64.76
59873;BME280;50750;51.636;4.948;2023-03-13T03:16:23;99988.10;;;10.82;64.47
59873;BME280;50750;51.636;4.948;2023-03-13T03:18:50;99990.16;;;10.82;64.46
59873;BME280;50750;51.636;4.948;2023-03-13T03:21:17;99988.76;;;10.83;64.35
59873;BME280;50750;51.636;4.948;2023-03-13T03:23:43;99990.63;;;10.84;64.50
59873;BME280;50750;51.636;4.948;2023-03-13T03:26:10;99990.58;;;10.85;64.73
59873;BME280;50750;51.636;4.948;2023-03-13T03:28:36;99991.82;;;10.85;64.69
59873;BME280;50750;51.636;4.948;2023-03-13T03:31:08;99988.14;;;10.85;64.47
59873;BME280;50750;51.636;4.948;2023-03-13T03:33:36;99989.00;;;10.85;64.34
59873;BME280;50750;51.636;4.948;2023-03-13T03:36:05;99984.27;;;10.85;64.50
59873;BME280;50750;51.636;4.948;2023-03-13T03:38:32;99984.28;;;10.85;64.55
59873;BME280;50750;51.636;4.948;2023-03-13T03:40:59;99987.95;;;10.85;64.39
59873;BME280;50750;51.636;4.948;2023-03-13T03:43:26;99985.72;;;10.84;64.41
59873;BME280;50750;51.636;4.948;2023-03-13T03:45:52;99989.43;;;10.83;64.58
59873;BME280;50750;51.636;4.948;2023-03-13T03:48:19;99986.58;;;10.84;64.62
59873;BME280;50750;51.636;4.948;2023-03-13T03:50:45;99983.92;;;10.86;64.64
59873;BME280;50750;51.636;4.948;2023-03-13T03:53:12;99982.67;;;10.86;64.67
59873;BME280;50750;51.636;4.948;2023-03-13T03:55:38;99978.41;;;10.87;64.98
59873;BME280;50750;51.636;4.948;2023-03-13T03:58:05;99971.92;;;10.88;64.79
59873;BME280;50750;51.636;4.948;2023-03-13T04:00:31;99960.70;;;10.88;64.52
59873;BME280;50750;51.636;4.948;2023-03-13T04:02:58;99958.74;;;10.89;64.77
59873;BME280;50750;51.636;4.948;2023-03-13T04:05:25;99952.25;;;10.89;64.59
59873;BME280;50750;51.636;4.948;2023-03-13T04:07:51;99949.27;;;10.89;64.59
59873;BME280;50750;51.636;4.948;2023-03-13T04:10:18;99947.52;;;10.89;64.47
59873;BME280;50750;51.636;4.948;2023-03-13T04:12:45;99943.66;;;10.89;64.73
59873;BME280;50750;51.636;4.948;2023-03-13T04:15:11;99940.01;;;10.89;64.44
59873;BME280;50750;51.636;4.948;2023-03-13T04:17:38;99933.02;;;10.88;64.91
59873;BME280;50750;51.636;4.948;2023-03-13T04:20:05;99932.48;;;10.88;64.79
59873;BME280;50750;51.636;4.948;2023-03-13T04:22:33;99929.86;;;10.89;64.71
59873;BME280;50750;51.636;4.948;2023-03-13T04:24:59;99930.48;;;10.90;64.68
59873;BME280;50750;51.636;4.948;2023-03-13T04:27:26;99928.52;;;10.90;64.84
59873;BME280;50750;51.636;4.948;2023-03-13T04:29:52;99921.13;;;10.91;64.64
59873;BME280;50750;51.636;4.948;2023-03-13T04:32:19;99918.13;;;10.92;64.68
59873;BME280;50750;51.636;4.948;2023-03-13T04:34:45;99923.52;;;10.93;65.02
59873;BME280;50750;51.636;4.948;2023-03-13T04:37:12;99921.73;;;10.93;64.84
59873;BME280;50750;51.636;4.948;2023-03-13T04:39:38;99915.77;;;10.93;65.00
59873;BME280;50750;51.636;4.948;2023-03-13T04:42:05;99914.90;;;10.93;64.61
59873;BME280;50750;51.636;4.948;2023-03-13T04:44:32;99910.85;;;10.94;64.70
59873;BME280;50750;51.636;4.948;2023-03-13T04:46:58;99906.49;;;10.94;64.66
59873;BME280;50750;51.636;4.948;2023-03-13T04:49:25;99910.52;;;10.94;65.01
59873;BME280;50750;51.636;4.948;2023-03-13T04:51:52;99901.95;;;10.93;64.90
59873;BME280;50750;51.636;4.948;2023-03-13T04:54:18;99896.16;;;10.93;64.77
59873;BME280;50750;51.636;4.948;2023-03-13T04:56:45;99890.40;;;10.93;64.57
59873;BME280;50750;51.636;4.948;2023-03-13T04:59:12;99887.43;;;10.93;64.83
59873;BME280;50750;51.636;4.948;2023-03-13T05:01:41;99889.84;;;10.94;64.71
59873;BME280;50750;51.636;4.948;2023-03-13T05:04:09;99883.48;;;10.95;64.73
59873;BME280;50750;51.636;4.948;2023-03-13T05:06:35;99881.31;;;10.96;64.61
59873;BME280;50750;51.636;4.948;2023-03-13T05:09:03;99879.35;;;10.97;64.73
59873;BME280;50750;51.636;4.948;2023-03-13T05:11:30;99870.05;;;10.97;64.71
59873;BME280;50750;51.636;4.948;2023-03-13T05:13:56;99868.61;;;10.98;64.76
59873;BME280;50750;51.636;4.948;2023-03-13T05:16:23;99865.27;;;10.98;65.16
59873;BME280;50750;51.636;4.948;2023-03-13T05:18:49;99869.97;;;10.99;65.33
59873;BME280;50750;51.636;4.948;2023-03-13T05:21:16;99868.40;;;10.99;65.37
59873;BME280;50750;51.636;4.948;2023-03-13T05:23:43;99872.40;;;11.00;65.12
59873;BME280;50750;51.636;4.948;2023-03-13T05:26:10;99870.16;;;10.98;65.04
59873;BME280;50750;51.636;4.948;2023-03-13T05:28:36;99866.31;;;10.98;64.89
59873;BME280;50750;51.636;4.948;2023-03-13T05:31:03;99864.23;;;10.98;65.04
59873;BME280;50750;51.636;4.948;2023-03-13T05:33:29;99873.86;;;10.98;64.98
59873;BME280;50750;51.636;4.948;2023-03-13T05:35:56;99869.23;;;11.00;64.87
59873;BME280;50750;51.636;4.948;2023-03-13T05:38:23;99871.64;;;11.01;64.83
59873;BME280;50750;51.636;4.948;2023-03-13T05:40:49;99862.14;;;11.01;65.05
59873;BME280;50750;51.636;4.948;2023-03-13T05:43:16;99863.16;;;11.02;65.20
59873;BME280;50750;51.636;4.948;2023-03-13T05:45:42;99861.38;;;11.02;65.04
59873;BME280;50750;51.636;4.948;2023-03-13T05:48:09;99861.70;;;11.03;64.86
59873;BME280;50750;51.636;4.948;2023-03-13T05:50:35;99863.79;;;11.03;64.84
59873;BME280;50750;51.636;4.948;2023-03-13T05:53:02;99870.58;;;11.04;64.91
59873;BME280;50750;51.636;4.948;2023-03-13T05:55:28;99868.66;;;11.04;64.86
59873;BME280;50750;51.636;4.948;2023-03-13T05:57:55;99859.39;;;11.04;64.86
59873;BME280;50750;51.636;4.948;2023-03-13T06:00:22;99862.86;;;11.05;64.95
59873;BME280;50750;51.636;4.948;2023-03-13T06:02:48;99849.02;;;11.05;65.37
59873;BME280;50750;51.636;4.948;2023-03-13T06:05:15;99842.03;;;11.04;65.26
59873;BME280;50750;51.636;4.948;2023-03-13T06:07:41;99851.11;;;11.05;65.46
59873;BME280;50750;51.636;4.948;2023-03-13T06:10:09;99848.08;;;11.06;65.72
59873;BME280;50750;51.636;4.948;2023-03-13T06:12:36;99847.00;;;11.07;65.52
59873;BME280;50750;51.636;4.948;2023-03-13T06:15:02;99846.24;;;11.08;65.28
59873;BME280;50750;51.636;4.948;2023-03-13T06:17:30;99847.43;;;11.09;65.43
59873;BME280;50750;51.636;4.948;2023-03-13T06:19:56;99842.86;;;11.09;65.17
59873;BME280;50750;51.636;4.948;2023-03-13T06:22:23;99846.88;;;11.10;65.09
59873;BME280;50750;51.636;4.948;2023-03-13T06:24:49;99847.55;;;11.10;64.95
59873;BME280;50750;51.636;4.948;2023-03-13T06:27:16;99851.56;;;11.11;65.09
59873;BME280;50750;51.636;4.948;2023-03-13T06:29:42;99848.61;;;11.10;65.13
59873;BME280;50750;51.636;4.948;2023-03-13T06:32:09;99852.96;;;11.10;65.20
59873;BME280;50750;51.636;4.948;2023-03-13T06:34:36;99848.55;;;11.11;65.07
59873;BME280;50750;51.636;4.948;2023-03-13T06:37:03;99850.50;;;11.11;65.41
59873;BME280;50750;51.636;4.948;2023-03-13T06:39:29;99847.70;;;11.10;65.15
59873;BME280;50750;51.636;4.948;2023-03-13T06:41:56;99846.95;;;11.11;65.14
59873;BME280;50750;51.636;4.948;2023-03-13T06:44:22;99852.50;;;11.13;65.21
59873;BME280;50750;51.636;4.948;2023-03-13T06:46:49;99851.21;;;11.14;65.05
59873;BME280;50750;51.636;4.948;2023-03-13T06:49:19;99851.89;;;11.14;65.02
59873;BME280;50750;51.636;4.948;2023-03-13T06:51:46;99852.23;;;11.14;65.12
59873;BME280;50750;51.636;4.948;2023-03-13T06:54:12;99845.17;;;11.15;65.05
59873;BME280;50750;51.636;4.948;2023-03-13T06:56:39;99849.03;;;11.15;65.43
59873;BME280;50750;51.636;4.948;2023-03-13T06:59:05;99843.78;;;11.16;65.47
59873;BME280;50750;51.636;4.948;2023-03-13T07:01:32;99844.11;;;11.16;65.05
59873;BME280;50750;51.636;4.948;2023-03-13T07:03:59;99843.05;;;11.16;65.08
59873;BME280;50750;51.636;4.948;2023-03-13T07:06:25;99848.13;;;11.16;64.98
59873;BME280;50750;51.636;4.948;2023-03-13T07:08:52;99839.41;;;11.15;65.10
59873;BME280;50750;51.636;4.948;2023-03-13T07:11:19;99841.01;;;11.15;65.23
59873;BME280;50750;51.636;4.948;2023-03-13T07:13:45;99834.34;;;11.15;65.34
59873;BME280;50750;51.636;4.948;2023-03-13T07:16:12;99844.14;;;11.15;65.42
59873;BME280;50750;51.636;4.948;2023-03-13T07:18:39;99848.66;;;11.16;65.30
59873;BME280;50750;51.636;4.948;2023-03-13T07:21:10;99853.86;;;11.17;65.58
59873;BME280;50750;51.636;4.948;2023-03-13T07:23:37;99847.69;;;11.18;65.27
59873;BME280;50750;51.636;4.948;2023-03-13T07:26:06;99853.08;;;11.19;65.21
59873;BME280;50750;51.636;4.948;2023-03-13T07:28:33;99846.09;;;11.18;65.49
59873;BME280;50750;51.636;4.948;2023-03-13T07:31:09;99853.41;;;11.19;65.47
59873;BME280;50750;51.636;4.948;2023-03-13T07:33:37;99859.20;;;11.19;65.26
59873;BME280;50750;51.636;4.948;2023-03-13T07:36:04;99859.19;;;11.19;65.11
59873;BME280;50750;51.636;4.948;2023-03-13T07:38:31;99856.41;;;11.19;65.16
59873;BME280;50750;51.636;4.948;2023-03-13T07:40:58;99857.81;;;11.19;65.36
59873;BME280;50750;51.636;4.948;2023-03-13T07:43:25;99861.13;;;11.19;65.27
59873;BME280;50750;51.636;4.948;2023-03-13T07:45:54;99857.31;;;11.18;65.28
59873;BME280;50750;51.636;4.948;2023-03-13T07:48:23;99853.44;;;11.18;65.32
59873;BME280;50750;51.636;4.948;2023-03-13T07:50:50;99852.33;;;11.20;65.44
59873;BME280;50750;51.636;4.948;2023-03-13T07:53:16;99857.37;;;11.20;65.37
59873;BME280;50750;51.636;4.948;2023-03-13T07:56:06;99854.50;;;11.22;65.15
59873;BME280;50750;51.636;4.948;2023-03-13T07:58:35;99850.80;;;11.22;65.60
59873;BME280;50750;51.636;4.948;2023-03-13T08:01:10;99854.09;;;11.23;65.58
59873;BME280;50750;51.636;4.948;2023-03-13T08:03:38;99856.20;;;11.23;65.32
59873;BME280;50750;51.636;4.948;2023-03-13T08:06:07;99859.86;;;11.23;65.67
59873;BME280;50750;51.636;4.948;2023-03-13T08:08:35;99853.01;;;11.24;65.39
59873;BME280;50750;51.636;4.948;2023-03-13T08:11:08;99852.65;;;11.24;65.52
59873;BME280;50750;51.636;4.948;2023-03-13T08:13:36;99864.05;;;11.23;65.40
59873;BME280;50750;51.636;4.948;2023-03-13T08:16:11;99861.23;;;11.24;65.38
59873;BME280;50750;51.636;4.948;2023-03-13T08:18:40;99856.36;;;11.23;65.72
59873;BME280;50750;51.636;4.948;2023-03-13T08:21:13;99853.54;;;11.24;65.77
59873;BME280;50750;51.636;4.948;2023-03-13T08:23:40;99851.20;;;11.25;65.54
59873;BME280;50750;51.636;4.948;2023-03-13T08:26:09;99851.49;;;11.26;65.49
59873;BME280;50750;51.636;4.948;2023-03-13T08:28:36;99843.06;;;11.26;65.28
59873;BME280;50750;51.636;4.948;2023-03-13T08:31:11;99843.72;;;11.27;65.59
59873;BME280;50750;51.636;4.948;2023-03-13T08:33:39;99845.64;;;11.27;65.95
59873;BME280;50750;51.636;4.948;2023-03-13T08:36:19;99842.98;;;11.28;65.77
59873;BME280;50750;51.636;4.948;2023-03-13T08:38:49;99836.83;;;11.28;65.84
59873;BME280;50750;51.636;4.948;2023-03-13T08:41:21;99828.91;;;11.29;66.20
59873;BME280;50750;51.636;4.948;2023-03-13T08:43:48;99827.19;;;11.28;65.96
59873;BME280;50750;51.636;4.948;2023-03-13T08:46:15;99810.20;;;11.28;65.82
59873;BME280;50750;51.636;4.948;2023-03-13T08:48:41;99805.98;;;11.28;66.06
59873;BME280;50750;51.636;4.948;2023-03-13T08:51:13;99795.63;;;11.29;66.19
59873;BME280;50750;51.636;4.948;2023-03-13T08:53:41;99788.23;;;11.30;66.35
59873;BME280;50750;51.636;4.948;2023-03-13T08:56:13;99786.20;;;11.32;66.28
59873;BME280;50750;51.636;4.948;2023-03-13T08:58:40;99784.94;;;11.32;66.16
59873;BME280;50750;51.636;4.948;2023-03-13T09:01:12;99783.29;;;11.34;65.93
59873;BME280;50750;51.636;4.948;2023-03-13T09:03:40;99779.88;;;11.35;65.70
59873;BME280;50750;51.636;4.948;2023-03-13T09:06:08;99782.11;;;11.36;65.77
59873;BME280;50750;51.636;4.948;2023-03-13T09:08:36;99779.45;;;11.37;65.80
59873;BME280;50750;51.636;4.948;2023-03-13T09:11:05;99777.84;;;11.38;65.90
59873;BME280;50750;51.636;4.948;2023-03-13T09:13:34;99770.77;;;11.38;65.65
59873;BME280;50750;51.636;4.948;2023-03-13T09:16:03;99760.60;;;11.39;66.03
59873;BME280;50750;51.636;4.948;2023-03-13T09:18:31;99772.67;;;11.39;65.92
59873;BME280;50750;51.636;4.948;2023-03-13T09:20:58;99760.62;;;11.38;66.29
59873;BME280;50750;51.636;4.948;2023-03-13T09:23:25;99766.54;;;11.39;65.98
59873;BME280;50750;51.636;4.948;2023-03-13T09:25:54;99759.30;;;11.40;65.79
59873;BME280;50750;51.636;4.948;2023-03-13T09:28:21;99745.73;;;11.42;66.27
59873;BME280;50750;51.636;4.948;2023-03-13T09:30:48;99748.85;;;11.42;65.97
59873;BME280;50750;51.636;4.948;2023-03-13T09:33:16;99747.91;;;11.43;65.64
59873;BME280;50750;51.636;4.948;2023-03-13T09:35:43;99751.05;;;11.43;65.89
59873;BME280;50750;51.636;4.948;2023-03-13T09:38:17;99748.20;;;11.44;65.69
59873;BME280;50750;51.636;4.948;2023-03-13T09:40:47;99743.29;;;11.44;65.77
59873;BME280;50750;51.636;4.948;2023-03-13T09:46:00;99742.06;;;11.45;66.16
59873;BME280;50750;51.636;4.948;2023-03-13T09:48:29;99738.19;;;11.45;66.17
59873;BME280;50750;51.636;4.948;2023-03-13T09:51:17;99734.48;;;11.45;65.85
59873;BME280;50750;51.636;4.948;2023-03-13T09:53:51;99737.39;;;11.47;65.86
59873;BME280;50750;51.636;4.948;2023-03-13T09:56:23;99738.94;;;11.47;66.03
59873;BME280;50750;51.636;4.948;2023-03-13T09:58:56;99731.17;;;11.48;65.89
59873;BME280;50750;51.636;4.948;2023-03-13T10:01:29;99733.05;;;11.49;65.78
59873;BME280;50750;51.636;4.948;2023-03-13T10:04:27;99724.42;;;11.50;65.77
59873;BME280;50750;51.636;4.948;2023-03-13T10:06:56;99714.77;;;11.50;65.87
59873;BME280;50750;51.636;4.948;2023-03-13T10:09:28;99717.53;;;11.51;66.13
59873;BME280;50750;51.636;4.948;2023-03-13T10:12:02;99709.99;;;11.51;65.93
59873;BME280;50750;51.636;4.948;2023-03-13T10:14:43;99712.23;;;11.52;65.95
59873;BME280;50750;51.636;4.948;2023-03-13T10:17:36;99723.11;;;11.52;65.93
59873;BME280;50750;51.636;4.948;2023-03-13T10:22:37;99718.48;;;11.53;66.24
59873;BME280;50750;51.636;4.948;2023-03-13T10:25:31;99707.86;;;11.55;66.15
59873;BME280;50750;51.636;4.948;2023-03-13T10:27:59;99706.95;;;11.56;66.12
59873;BME280;50750;51.636;4.948;2023-03-13T10:30:28;99697.61;;;11.57;66.08
59873;BME280;50750;51.636;4.948;2023-03-13T10:32:58;99697.21;;;11.57;66.52
59873;BME280;50750;51.636;4.948;2023-03-13T10:35:32;99696.13;;;11.58;66.22
59873;BME280;50750;51.636;4.948;2023-03-13T10:38:07;99697.52;;;11.59;66.16
59873;BME280;50750;51.636;4.948;2023-03-13T10:40:34;99686.77;;;11.59;65.98
59873;BME280;50750;51.636;4.948;2023-03-13T10:43:26;99679.42;;;11.59;65.75
59873;BME280;50750;51.636;4.948;2023-03-13T10:45:52;99678.88;;;11.59;65.99
59873;BME280;50750;51.636;4.948;2023-03-13T10:48:20;99680.46;;;11.59;65.96
59873;BME280;50750;51.636;4.948;2023-03-13T10:50:49;99676.95;;;11.60;66.19
59873;BME280;50750;51.636;4.948;2023-03-13T10:55:59;99675.98;;;11.61;66.02
59873;BME280;50750;51.636;4.948;2023-03-13T10:58:32;99665.73;;;11.63;66.23
59873;BME280;50750;51.636;4.948;2023-03-13T11:01:29;99673.41;;;11.63;66.16
59873;BME280;50750;51.636;4.948;2023-03-13T11:07:11;99661.34;;;11.66;66.11
59873;BME280;50750;51.636;4.948;2023-03-13T11:09:40;99663.98;;;11.66;66.31
59873;BME280;50750;51.636;4.948;2023-03-13T11:12:16;99652.91;;;11.66;66.46
59873;BME280;50750;51.636;4.948;2023-03-13T11:14:44;99655.13;;;11.67;66.33
59873;BME280;50750;51.636;4.948;2023-03-13T11:33:27;99643.05;;;11.70;66.35
59873;BME280;50750;51.636;4.948;2023-03-13T11:36:24;99636.16;;;11.71;66.33
59873;BME280;50750;51.636;4.948;2023-03-13T11:58:29;99602.10;;;11.75;66.53
59873;BME280;50750;51.636;4.948;2023-03-13T12:06:39;99591.74;;;11.78;66.27
59873;BME280;50750;51.636;4.948;2023-03-13T12:11:50;99584.10;;;11.81;66.08
59873;BME280;50750;51.636;4.948;2023-03-13T12:14:30;99577.89;;;11.82;66.20
59873;BME280;50750;51.636;4.948;2023-03-13T12:17:02;99569.44;;;11.82;66.37
59873;BME280;50750;51.636;4.948;2023-03-13T12:19:33;99571.65;;;11.83;66.13
59873;BME280;50750;51.636;4.948;2023-03-13T12:22:14;99567.05;;;11.84;66.20
59873;BME280;50750;51.636;4.948;2023-03-13T12:24:50;99568.77;;;11.85;66.04
59873;BME280;50750;51.636;4.948;2023-03-13T12:27:26;99566.11;;;11.86;66.04
59873;BME280;50750;51.636;4.948;2023-03-13T12:30:03;99558.20;;;11.86;66.22
59873;BME280;50750;51.636;4.948;2023-03-13T12:32:57;99552.88;;;11.87;66.37
59873;BME280;50750;51.636;4.948;2023-03-13T12:35:30;99548.46;;;11.88;66.35
59873;BME280;50750;51.636;4.948;2023-03-13T12:38:19;99548.35;;;11.90;66.17
59873;BME280;50750;51.636;4.948;2023-03-13T12:43:50;99548.70;;;11.93;66.13
59873;BME280;50750;51.636;4.948;2023-03-13T12:46:40;99547.77;;;11.94;66.04
59873;BME280;50750;51.636;4.948;2023-03-13T12:58:00;99536.31;;;11.98;66.25
59873;BME280;50750;51.636;4.948;2023-03-13T13:00:35;99536.82;;;11.99;66.07
59873;BME280;50750;51.636;4.948;2023-03-13T13:03:14;99533.83;;;11.98;66.15
59873;BME280;50750;51.636;4.948;2023-03-13T13:06:15;99544.34;;;11.99;66.16
59873;BME280;50750;51.636;4.948;2023-03-13T13:16:57;99528.48;;;12.03;66.23
59873;BME280;50750;51.636;4.948;2023-03-13T13:25:00;99530.19;;;12.07;66.15
59873;BME280;50750;51.636;4.948;2023-03-13T13:35:23;99522.53;;;12.09;66.09
59873;BME280;50750;51.636;4.948;2023-03-13T13:37:51;99525.52;;;12.08;66.07
59873;BME280;50750;51.636;4.948;2023-03-13T13:40:27;99533.02;;;12.09;66.06
59873;BME280;50750;51.636;4.948;2023-03-13T13:42:58;99528.83;;;12.09;65.91
59873;BME280;50750;51.636;4.948;2023-03-13T13:45:30;99521.27;;;12.09;66.09
59873;BME280;50750;51.636;4.948;2023-03-13T14:01:50;99512.24;;;12.17;66.13
59873;BME280;50750;51.636;4.948;2023-03-13T14:04:28;99505.39;;;12.17;65.98
59873;BME280;50750;51.636;4.948;2023-03-13T14:07:00;99503.24;;;12.18;66.08
59873;BME280;50750;51.636;4.948;2023-03-13T14:09:46;99501.80;;;12.18;66.14
59873;BME280;50750;51.636;4.948;2023-03-13T14:17:44;99495.83;;;12.19;66.26
59873;BME280;50750;51.636;4.948;2023-03-13T14:22:55;99495.05;;;12.20;66.12
59873;BME280;50750;51.636;4.948;2023-03-13T14:25:23;99495.88;;;12.21;66.08
59873;BME280;50750;51.636;4.948;2023-03-13T14:27:52;99484.61;;;12.21;65.91
59873;BME280;50750;51.636;4.948;2023-03-13T14:30:20;99480.66;;;12.23;66.17
59873;BME280;50750;51.636;4.948;2023-03-13T14:32:49;99475.33;;;12.24;66.20
59873;BME280;50750;51.636;4.948;2023-03-13T14:35:17;99472.26;;;12.25;66.04
59873;BME280;50750;51.636;4.948;2023-03-13T14:37:50;99473.63;;;12.26;66.07
59873;BME280;50750;51.636;4.948;2023-03-13T14:40:25;99459.17;;;12.27;66.07
59873;BME280;50750;51.636;4.948;2023-03-13T14:42:58;99460.36;;;12.28;66.16
59873;BME280;50750;51.636;4.948;2023-03-13T14:45:35;99452.23;;;12.28;66.13
59873;BME280;50750;51.636;4.948;2023-03-13T14:48:16;99441.48;;;12.30;66.09
59873;BME280;50750;51.636;4.948;2023-03-13T14:50:44;99436.90;;;12.30;65.91
59873;BME280;50750;51.636;4.948;2023-03-13T14:53:15;99443.00;;;12.30;65.97
59873;BME280;50750;51.636;4.948;2023-03-13T14:55:42;99434.94;;;12.30;65.97
59873;BME280;50750;51.636;4.948;2023-03-13T15:00:47;99421.22;;;12.33;65.95
59873;BME280;50750;51.636;4.948;2023-03-13T15:05:47;99417.91;;;12.36;66.17
59873;BME280;50750;51.636;4.948;2023-03-13T15:10:41;99410.58;;;12.38;65.91
59873;BME280;50750;51.636;4.948;2023-03-13T15:13:35;99416.29;;;12.40;65.91
59873;BME280;50750;51.636;4.948;2023-03-13T15:16:21;99410.98;;;12.40;65.99
59873;BME280;50750;51.636;4.948;2023-03-13T15:18:50;99417.61;;;12.41;65.82
59873;BME280;50750;51.636;4.948;2023-03-13T15:21:29;99412.86;;;12.41;66.00